sensor_id;sensor_type;location;lat;lon;timestamp;temperature;humidity
8910;DHT22;4490;49.072;8.804;2022-07-22T00:02:08;19.80;90.20
8910;DHT22;4490;49.072;8.804;2022-07-22T00:04:34;19.80;90.30
8910;DHT22;4490;49.072;8.804;2022-07-22T00:06:59;19.70;90.40
8910;DHT22;4490;49.072;8.804;2022-07-22T00:09:25;19.70;90.50
8910;DHT22;4490;49.072;8.804;2022-07-22T00:11:51;19.70;90.60
8910;DHT22;4490;49.072;8.804;2022-07-22T00:14:17;19.70;90.70
8910;DHT22;4490;49.072;8.804;2022-07-22T00:16:43;19.60;90.80
8910;DHT22;4490;49.072;8.804;2022-07-22T00:19:09;19.60;91.00
8910;DHT22;4490;49.072;8.804;2022-07-22T00:21:34;19.50;91.30
8910;DHT22;4490;49.072;8.804;2022-07-22T00:24:00;19.50;91.50
8910;DHT22;4490;49.072;8.804;2022-07-22T00:26:26;19.50;91.70
8910;DHT22;4490;49.072;8.804;2022-07-22T00:28:51;19.50;91.90
8910;DHT22;4490;49.072;8.804;2022-07-22T00:31:17;19.40;92.10
8910;DHT22;4490;49.072;8.804;2022-07-22T00:33:42;19.40;92.30
8910;DHT22;4490;49.072;8.804;2022-07-22T00:36:08;19.40;92.50
8910;DHT22;4490;49.072;8.804;2022-07-22T00:38:34;19.40;92.70
8910;DHT22;4490;49.072;8.804;2022-07-22T00:41:00;19.40;92.90
8910;DHT22;4490;49.072;8.804;2022-07-22T00:43:26;19.40;93.10
8910;DHT22;4490;49.072;8.804;2022-07-22T00:45:52;19.40;93.20
8910;DHT22;4490;49.072;8.804;2022-07-22T00:48:18;19.40;93.20
8910;DHT22;4490;49.072;8.804;2022-07-22T00:50:44;19.40;93.30
8910;DHT22;4490;49.072;8.804;2022-07-22T00:53:10;19.40;93.50
8910;DHT22;4490;49.072;8.804;2022-07-22T00:55:37;19.40;93.70
8910;DHT22;4490;49.072;8.804;2022-07-22T00:58:03;19.40;93.90
8910;DHT22;4490;49.072;8.804;2022-07-22T01:00:30;19.30;94.00
8910;DHT22;4490;49.072;8.804;2022-07-22T01:02:55;19.30;94.20
8910;DHT22;4490;49.072;8.804;2022-07-22T01:05:21;19.30;94.40
8910;DHT22;4490;49.072;8.804;2022-07-22T01:07:47;19.20;94.50
8910;DHT22;4490;49.072;8.804;2022-07-22T01:10:13;19.20;94.80
8910;DHT22;4490;49.072;8.804;2022-07-22T01:12:39;19.20;94.80
8910;DHT22;4490;49.072;8.804;2022-07-22T01:15:05;19.10;95.00
8910;DHT22;4490;49.072;8.804;2022-07-22T01:17:31;19.10;95.20
8910;DHT22;4490;49.072;8.804;2022-07-22T01:20:04;19.00;95.40
8910;DHT22;4490;49.072;8.804;2022-07-22T01:22:31;19.10;95.80
8910;DHT22;4490;49.072;8.804;2022-07-22T01:24:57;19.00;96.00
8910;DHT22;4490;49.072;8.804;2022-07-22T01:27:22;19.00;96.30
8910;DHT22;4490;49.072;8.804;2022-07-22T01:29:48;19.00;96.50
8910;DHT22;4490;49.072;8.804;2022-07-22T01:32:13;18.90;96.90
8910;DHT22;4490;49.072;8.804;2022-07-22T01:34:39;18.90;97.00
8910;DHT22;4490;49.072;8.804;2022-07-22T01:37:05;18.90;97.20
8910;DHT22;4490;49.072;8.804;2022-07-22T01:39:30;18.90;97.30
8910;DHT22;4490;49.072;8.804;2022-07-22T01:41:56;18.90;97.30
8910;DHT22;4490;49.072;8.804;2022-07-22T01:44:22;18.80;97.30
8910;DHT22;4490;49.072;8.804;2022-07-22T01:46:47;18.80;97.50
8910;DHT22;4490;49.072;8.804;2022-07-22T01:49:14;18.80;97.60
8910;DHT22;4490;49.072;8.804;2022-07-22T01:51:40;18.70;97.90
8910;DHT22;4490;49.072;8.804;2022-07-22T01:54:06;18.70;98.20
8910;DHT22;4490;49.072;8.804;2022-07-22T01:56:31;18.70;98.30
8910;DHT22;4490;49.072;8.804;2022-07-22T01:58:57;18.70;98.40
8910;DHT22;4490;49.072;8.804;2022-07-22T02:01:23;18.70;98.30
8910;DHT22;4490;49.072;8.804;2022-07-22T02:03:50;18.60;98.30
8910;DHT22;4490;49.072;8.804;2022-07-22T02:06:15;18.50;98.60
8910;DHT22;4490;49.072;8.804;2022-07-22T02:08:41;18.50;98.90
8910;DHT22;4490;49.072;8.804;2022-07-22T02:11:07;18.50;99.10
8910;DHT22;4490;49.072;8.804;2022-07-22T02:13:32;18.50;99.40
8910;DHT22;4490;49.072;8.804;2022-07-22T02:15:58;18.50;99.60
8910;DHT22;4490;49.072;8.804;2022-07-22T02:18:24;18.40;99.60
8910;DHT22;4490;49.072;8.804;2022-07-22T02:20:51;18.40;99.70
8910;DHT22;4490;49.072;8.804;2022-07-22T02:23:16;18.40;99.90
8910;DHT22;4490;49.072;8.804;2022-07-22T02:25:42;18.40;99.90
8910;DHT22;4490;49.072;8.804;2022-07-22T02:28:08;18.30;99.90
8910;DHT22;4490;49.072;8.804;2022-07-22T02:30:34;18.30;99.90
8910;DHT22;4490;49.072;8.804;2022-07-22T02:32:59;18.30;99.90
8910;DHT22;4490;49.072;8.804;2022-07-22T02:35:25;18.30;99.90
8910;DHT22;4490;49.072;8.804;2022-07-22T02:37:51;18.30;99.90
8910;DHT22;4490;49.072;8.804;2022-07-22T02:40:17;18.30;99.90
8910;DHT22;4490;49.072;8.804;2022-07-22T02:42:42;18.30;99.90
8910;DHT22;4490;49.072;8.804;2022-07-22T02:45:08;18.30;99.90
8910;DHT22;4490;49.072;8.804;2022-07-22T02:47:34;18.20;99.90
8910;DHT22;4490;49.072;8.804;2022-07-22T02:50:00;18.20;99.90
8910;DHT22;4490;49.072;8.804;2022-07-22T02:52:26;18.20;99.90
8910;DHT22;4490;49.072;8.804;2022-07-22T02:54:51;18.20;99.90
8910;DHT22;4490;49.072;8.804;2022-07-22T02:57:17;18.10;99.90
8910;DHT22;4490;49.072;8.804;2022-07-22T02:59:43;18.10;99.90
8910;DHT22;4490;49.072;8.804;2022-07-22T03:02:08;18.10;99.90
8910;DHT22;4490;49.072;8.804;2022-07-22T03:04:34;18.10;99.90
8910;DHT22;4490;49.072;8.804;2022-07-22T03:06:59;18.10;99.90
8910;DHT22;4490;49.072;8.804;2022-07-22T03:09:25;18.10;99.90
8910;DHT22;4490;49.072;8.804;2022-07-22T03:11:51;18.10;99.90
8910;DHT22;4490;49.072;8.804;2022-07-22T03:14:16;18.00;99.90
8910;DHT22;4490;49.072;8.804;2022-07-22T03:16:44;18.00;99.90
8910;DHT22;4490;49.072;8.804;2022-07-22T03:19:10;18.00;99.90
8910;DHT22;4490;49.072;8.804;2022-07-22T03:21:35;17.90;99.90
8910;DHT22;4490;49.072;8.804;2022-07-22T03:24:01;17.90;99.90
8910;DHT22;4490;49.072;8.804;2022-07-22T03:26:27;17.90;99.90
8910;DHT22;4490;49.072;8.804;2022-07-22T03:28:52;17.80;99.90
8910;DHT22;4490;49.072;8.804;2022-07-22T03:31:18;17.80;99.90
8910;DHT22;4490;49.072;8.804;2022-07-22T03:33:45;17.80;99.90
8910;DHT22;4490;49.072;8.804;2022-07-22T03:36:11;17.80;99.90
8910;DHT22;4490;49.072;8.804;2022-07-22T03:38:37;17.80;99.90
8910;DHT22;4490;49.072;8.804;2022-07-22T03:41:03;17.80;99.90
8910;DHT22;4490;49.072;8.804;2022-07-22T03:43:29;17.80;99.90
8910;DHT22;4490;49.072;8.804;2022-07-22T03:45:55;17.70;99.90
8910;DHT22;4490;49.072;8.804;2022-07-22T03:48:21;17.70;99.90
8910;DHT22;4490;49.072;8.804;2022-07-22T03:50:46;17.70;99.90
8910;DHT22;4490;49.072;8.804;2022-07-22T03:53:12;17.70;99.90
8910;DHT22;4490;49.072;8.804;2022-07-22T03:55:38;17.60;99.90
8910;DHT22;4490;49.072;8.804;2022-07-22T03:58:03;17.60;99.90
8910;DHT22;4490;49.072;8.804;2022-07-22T04:00:29;17.60;99.90
8910;DHT22;4490;49.072;8.804;2022-07-22T04:02:55;17.60;99.90
8910;DHT22;4490;49.072;8.804;2022-07-22T04:05:20;17.60;99.90
8910;DHT22;4490;49.072;8.804;2022-07-22T04:07:46;17.60;99.90
8910;DHT22;4490;49.072;8.804;2022-07-22T04:10:11;17.60;99.90
8910;DHT22;4490;49.072;8.804;2022-07-22T04:12:40;17.60;99.90
8910;DHT22;4490;49.072;8.804;2022-07-22T04:15:07;17.70;99.90
8910;DHT22;4490;49.072;8.804;2022-07-22T04:17:33;17.70;99.90
8910;DHT22;4490;49.072;8.804;2022-07-22T04:19:59;17.60;99.90
8910;DHT22;4490;49.072;8.804;2022-07-22T04:22:29;17.60;99.90
8910;DHT22;4490;49.072;8.804;2022-07-22T04:24:55;17.60;99.90
8910;DHT22;4490;49.072;8.804;2022-07-22T04:27:21;17.60;99.90
8910;DHT22;4490;49.072;8.804;2022-07-22T04:29:46;17.60;99.90
8910;DHT22;4490;49.072;8.804;2022-07-22T04:32:12;17.60;99.90
8910;DHT22;4490;49.072;8.804;2022-07-22T04:34:38;17.60;99.90
8910;DHT22;4490;49.072;8.804;2022-07-22T04:37:03;17.50;99.90
8910;DHT22;4490;49.072;8.804;2022-07-22T04:39:29;17.50;99.90
8910;DHT22;4490;49.072;8.804;2022-07-22T04:41:55;17.50;99.90
8910;DHT22;4490;49.072;8.804;2022-07-22T04:44:20;17.50;99.90
8910;DHT22;4490;49.072;8.804;2022-07-22T04:46:46;17.50;99.90
8910;DHT22;4490;49.072;8.804;2022-07-22T04:49:11;17.50;99.90
8910;DHT22;4490;49.072;8.804;2022-07-22T04:51:37;17.50;99.90
8910;DHT22;4490;49.072;8.804;2022-07-22T04:54:03;17.50;99.90
8910;DHT22;4490;49.072;8.804;2022-07-22T04:56:28;17.50;99.90
8910;DHT22;4490;49.072;8.804;2022-07-22T04:58:54;17.50;99.90
8910;DHT22;4490;49.072;8.804;2022-07-22T05:01:19;17.60;99.90
8910;DHT22;4490;49.072;8.804;2022-07-22T05:03:45;17.60;99.90
8910;DHT22;4490;49.072;8.804;2022-07-22T05:06:11;17.70;99.90
8910;DHT22;4490;49.072;8.804;2022-07-22T05:08:36;17.70;99.90
8910;DHT22;4490;49.072;8.804;2022-07-22T05:11:02;17.70;99.90
8910;DHT22;4490;49.072;8.804;2022-07-22T05:13:28;17.80;99.90
8910;DHT22;4490;49.072;8.804;2022-07-22T05:15:53;17.90;99.90
8910;DHT22;4490;49.072;8.804;2022-07-22T05:18:20;17.90;99.90
8910;DHT22;4490;49.072;8.804;2022-07-22T05:20:45;18.00;99.90
8910;DHT22;4490;49.072;8.804;2022-07-22T05:23:11;18.00;99.90
8910;DHT22;4490;49.072;8.804;2022-07-22T05:25:37;18.10;99.90
8910;DHT22;4490;49.072;8.804;2022-07-22T05:28:02;18.20;99.90
8910;DHT22;4490;49.072;8.804;2022-07-22T05:30:28;18.20;99.90
8910;DHT22;4490;49.072;8.804;2022-07-22T05:32:54;18.20;99.90
8910;DHT22;4490;49.072;8.804;2022-07-22T05:35:20;18.30;99.90
8910;DHT22;4490;49.072;8.804;2022-07-22T05:37:47;18.30;99.90
8910;DHT22;4490;49.072;8.804;2022-07-22T05:40:13;18.30;99.90
8910;DHT22;4490;49.072;8.804;2022-07-22T05:42:38;18.40;99.90
8910;DHT22;4490;49.072;8.804;2022-07-22T05:45:04;18.40;99.90
8910;DHT22;4490;49.072;8.804;2022-07-22T05:47:30;18.50;99.90
8910;DHT22;4490;49.072;8.804;2022-07-22T05:49:56;18.50;99.90
8910;DHT22;4490;49.072;8.804;2022-07-22T05:52:21;18.60;99.90
8910;DHT22;4490;49.072;8.804;2022-07-22T05:54:47;18.70;99.90
8910;DHT22;4490;49.072;8.804;2022-07-22T05:57:13;18.90;99.90
8910;DHT22;4490;49.072;8.804;2022-07-22T05:59:38;19.20;99.90
8910;DHT22;4490;49.072;8.804;2022-07-22T06:02:04;19.80;99.90
8910;DHT22;4490;49.072;8.804;2022-07-22T06:04:30;20.30;99.90
8910;DHT22;4490;49.072;8.804;2022-07-22T06:06:56;20.80;99.90
8910;DHT22;4490;49.072;8.804;2022-07-22T06:09:22;21.30;99.90
8910;DHT22;4490;49.072;8.804;2022-07-22T06:11:47;21.70;99.90
8910;DHT22;4490;49.072;8.804;2022-07-22T06:14:13;22.10;98.70
8910;DHT22;4490;49.072;8.804;2022-07-22T06:16:38;22.40;96.90
8910;DHT22;4490;49.072;8.804;2022-07-22T06:19:04;22.60;95.60
8910;DHT22;4490;49.072;8.804;2022-07-22T06:21:30;22.80;94.60
8910;DHT22;4490;49.072;8.804;2022-07-22T06:23:56;22.90;94.40
8910;DHT22;4490;49.072;8.804;2022-07-22T06:26:21;23.00;93.60
8910;DHT22;4490;49.072;8.804;2022-07-22T06:28:47;23.00;93.30
8910;DHT22;4490;49.072;8.804;2022-07-22T06:31:12;23.10;93.00
8910;DHT22;4490;49.072;8.804;2022-07-22T06:33:38;23.10;92.70
8910;DHT22;4490;49.072;8.804;2022-07-22T06:36:04;23.00;92.70
8910;DHT22;4490;49.072;8.804;2022-07-22T06:38:30;23.00;92.80
8910;DHT22;4490;49.072;8.804;2022-07-22T06:40:56;22.90;93.10
8910;DHT22;4490;49.072;8.804;2022-07-22T06:43:21;22.90;93.20
8910;DHT22;4490;49.072;8.804;2022-07-22T06:45:47;22.80;93.10
8910;DHT22;4490;49.072;8.804;2022-07-22T06:48:13;22.80;92.80
8910;DHT22;4490;49.072;8.804;2022-07-22T06:50:39;22.80;92.70
8910;DHT22;4490;49.072;8.804;2022-07-22T06:53:04;22.80;92.70
8910;DHT22;4490;49.072;8.804;2022-07-22T06:55:30;22.80;92.40
8910;DHT22;4490;49.072;8.804;2022-07-22T06:57:56;22.80;92.20
8910;DHT22;4490;49.072;8.804;2022-07-22T07:00:21;22.80;91.50
8910;DHT22;4490;49.072;8.804;2022-07-22T07:02:47;22.80;91.70
8910;DHT22;4490;49.072;8.804;2022-07-22T07:05:13;22.80;91.40
8910;DHT22;4490;49.072;8.804;2022-07-22T07:07:38;22.90;91.80
8910;DHT22;4490;49.072;8.804;2022-07-22T07:10:04;23.00;91.40
8910;DHT22;4490;49.072;8.804;2022-07-22T07:12:30;23.10;91.30
8910;DHT22;4490;49.072;8.804;2022-07-22T07:14:55;23.20;91.00
8910;DHT22;4490;49.072;8.804;2022-07-22T07:17:21;23.30;90.90
8910;DHT22;4490;49.072;8.804;2022-07-22T07:19:47;23.40;90.80
8910;DHT22;4490;49.072;8.804;2022-07-22T07:22:12;23.50;90.70
8910;DHT22;4490;49.072;8.804;2022-07-22T07:24:38;23.60;90.50
8910;DHT22;4490;49.072;8.804;2022-07-22T07:27:04;23.80;90.10
8910;DHT22;4490;49.072;8.804;2022-07-22T07:29:29;24.00;89.40
8910;DHT22;4490;49.072;8.804;2022-07-22T07:31:55;24.10;88.80
8910;DHT22;4490;49.072;8.804;2022-07-22T07:34:20;24.20;88.40
8910;DHT22;4490;49.072;8.804;2022-07-22T07:36:46;24.20;86.50
8910;DHT22;4490;49.072;8.804;2022-07-22T07:39:12;24.30;85.30
8910;DHT22;4490;49.072;8.804;2022-07-22T07:41:37;24.30;85.40
8910;DHT22;4490;49.072;8.804;2022-07-22T07:44:03;24.40;84.90
8910;DHT22;4490;49.072;8.804;2022-07-22T07:46:29;24.40;84.40
8910;DHT22;4490;49.072;8.804;2022-07-22T07:48:54;24.50;85.00
8910;DHT22;4490;49.072;8.804;2022-07-22T07:51:20;24.50;84.50
8910;DHT22;4490;49.072;8.804;2022-07-22T07:53:46;24.60;84.40
8910;DHT22;4490;49.072;8.804;2022-07-22T07:56:11;24.80;83.80
8910;DHT22;4490;49.072;8.804;2022-07-22T07:58:37;24.90;83.80
8910;DHT22;4490;49.072;8.804;2022-07-22T08:01:04;24.90;82.60
8910;DHT22;4490;49.072;8.804;2022-07-22T08:03:30;25.00;83.10
8910;DHT22;4490;49.072;8.804;2022-07-22T08:05:56;25.10;82.90
8910;DHT22;4490;49.072;8.804;2022-07-22T08:08:23;25.20;81.90
8910;DHT22;4490;49.072;8.804;2022-07-22T08:10:48;25.30;80.60
8910;DHT22;4490;49.072;8.804;2022-07-22T08:13:14;25.40;81.10
8910;DHT22;4490;49.072;8.804;2022-07-22T08:15:40;25.50;80.80
8910;DHT22;4490;49.072;8.804;2022-07-22T08:18:06;25.60;80.30
8910;DHT22;4490;49.072;8.804;2022-07-22T08:20:32;25.70;80.30
8910;DHT22;4490;49.072;8.804;2022-07-22T08:22:58;25.80;79.00
8910;DHT22;4490;49.072;8.804;2022-07-22T08:25:24;26.00;79.10
8910;DHT22;4490;49.072;8.804;2022-07-22T08:27:51;26.20;78.00
8910;DHT22;4490;49.072;8.804;2022-07-22T08:30:17;26.20;77.70
8910;DHT22;4490;49.072;8.804;2022-07-22T08:32:43;26.30;76.70
8910;DHT22;4490;49.072;8.804;2022-07-22T08:35:09;26.40;76.50
8910;DHT22;4490;49.072;8.804;2022-07-22T08:37:35;26.50;76.80
8910;DHT22;4490;49.072;8.804;2022-07-22T08:40:01;26.50;76.10
8910;DHT22;4490;49.072;8.804;2022-07-22T08:42:27;26.60;75.90
8910;DHT22;4490;49.072;8.804;2022-07-22T08:44:53;26.70;76.10
8910;DHT22;4490;49.072;8.804;2022-07-22T08:47:23;26.70;75.70
8910;DHT22;4490;49.072;8.804;2022-07-22T08:49:49;26.90;75.40
8910;DHT22;4490;49.072;8.804;2022-07-22T08:52:15;27.00;74.90
8910;DHT22;4490;49.072;8.804;2022-07-22T08:54:41;27.10;74.00
8910;DHT22;4490;49.072;8.804;2022-07-22T08:57:07;27.20;72.50
8910;DHT22;4490;49.072;8.804;2022-07-22T08:59:32;27.20;71.50
8910;DHT22;4490;49.072;8.804;2022-07-22T09:02:07;27.30;72.00
8910;DHT22;4490;49.072;8.804;2022-07-22T09:04:59;27.50;71.50
8910;DHT22;4490;49.072;8.804;2022-07-22T09:07:33;27.70;71.70
8910;DHT22;4490;49.072;8.804;2022-07-22T09:10:01;27.80;71.10
8910;DHT22;4490;49.072;8.804;2022-07-22T09:12:27;27.90;70.50
8910;DHT22;4490;49.072;8.804;2022-07-22T09:14:55;28.00;70.60
8910;DHT22;4490;49.072;8.804;2022-07-22T09:17:32;28.20;70.40
8910;DHT22;4490;49.072;8.804;2022-07-22T09:20:03;28.40;69.80
8910;DHT22;4490;49.072;8.804;2022-07-22T09:22:39;28.50;68.90
8910;DHT22;4490;49.072;8.804;2022-07-22T09:27:45;28.60;66.50
8910;DHT22;4490;49.072;8.804;2022-07-22T09:30:16;28.70;68.50
8910;DHT22;4490;49.072;8.804;2022-07-22T09:32:43;28.80;68.50
8910;DHT22;4490;49.072;8.804;2022-07-22T09:35:10;28.90;68.40
8910;DHT22;4490;49.072;8.804;2022-07-22T09:38:00;29.00;67.80
8910;DHT22;4490;49.072;8.804;2022-07-22T09:40:34;29.20;66.80
8910;DHT22;4490;49.072;8.804;2022-07-22T09:43:11;29.30;66.50
8910;DHT22;4490;49.072;8.804;2022-07-22T09:45:53;29.50;67.00
8910;DHT22;4490;49.072;8.804;2022-07-22T09:48:25;29.70;65.70
8910;DHT22;4490;49.072;8.804;2022-07-22T09:50:52;29.80;65.00
8910;DHT22;4490;49.072;8.804;2022-07-22T09:53:21;30.00;63.60
8910;DHT22;4490;49.072;8.804;2022-07-22T09:55:47;30.10;63.60
8910;DHT22;4490;49.072;8.804;2022-07-22T09:58:13;30.30;64.50
8910;DHT22;4490;49.072;8.804;2022-07-22T10:00:41;30.50;63.30
8910;DHT22;4490;49.072;8.804;2022-07-22T10:03:10;30.60;63.40
8910;DHT22;4490;49.072;8.804;2022-07-22T10:05:39;30.70;61.50
8910;DHT22;4490;49.072;8.804;2022-07-22T10:08:06;30.70;62.50
8910;DHT22;4490;49.072;8.804;2022-07-22T10:10:33;30.80;61.90
8910;DHT22;4490;49.072;8.804;2022-07-22T10:13:00;30.80;61.60
8910;DHT22;4490;49.072;8.804;2022-07-22T10:15:27;30.90;61.10
8910;DHT22;4490;49.072;8.804;2022-07-22T10:17:55;31.00;62.60
8910;DHT22;4490;49.072;8.804;2022-07-22T10:20:26;31.00;60.50
8910;DHT22;4490;49.072;8.804;2022-07-22T10:25:23;31.10;60.70
8910;DHT22;4490;49.072;8.804;2022-07-22T10:35:28;31.50;58.40
8910;DHT22;4490;49.072;8.804;2022-07-22T10:37:55;31.60;58.80
8910;DHT22;4490;49.072;8.804;2022-07-22T10:40:49;31.80;58.90
8910;DHT22;4490;49.072;8.804;2022-07-22T10:43:19;31.90;56.00
8910;DHT22;4490;49.072;8.804;2022-07-22T10:45:51;31.90;58.60
8910;DHT22;4490;49.072;8.804;2022-07-22T10:53:56;32.60;56.90
8910;DHT22;4490;49.072;8.804;2022-07-22T10:56:29;32.60;55.80
8910;DHT22;4490;49.072;8.804;2022-07-22T10:59:15;32.70;55.90
8910;DHT22;4490;49.072;8.804;2022-07-22T11:01:46;32.80;54.00
8910;DHT22;4490;49.072;8.804;2022-07-22T11:04:19;32.90;54.70
8910;DHT22;4490;49.072;8.804;2022-07-22T11:06:47;33.10;54.80
8910;DHT22;4490;49.072;8.804;2022-07-22T11:09:13;33.20;54.80
8910;DHT22;4490;49.072;8.804;2022-07-22T11:11:42;33.40;54.70
8910;DHT22;4490;49.072;8.804;2022-07-22T11:14:34;33.40;54.50
8910;DHT22;4490;49.072;8.804;2022-07-22T11:17:12;33.40;54.10
8910;DHT22;4490;49.072;8.804;2022-07-22T11:19:39;33.40;53.50
8910;DHT22;4490;49.072;8.804;2022-07-22T11:22:10;33.50;53.60
8910;DHT22;4490;49.072;8.804;2022-07-22T11:24:37;33.70;53.90
8910;DHT22;4490;49.072;8.804;2022-07-22T11:27:04;33.70;52.90
8910;DHT22;4490;49.072;8.804;2022-07-22T11:29:37;33.80;52.60
8910;DHT22;4490;49.072;8.804;2022-07-22T11:32:07;34.00;53.50
8910;DHT22;4490;49.072;8.804;2022-07-22T11:34:41;34.10;52.70
8910;DHT22;4490;49.072;8.804;2022-07-22T11:37:19;34.30;52.30
8910;DHT22;4490;49.072;8.804;2022-07-22T11:39:45;34.40;52.30
8910;DHT22;4490;49.072;8.804;2022-07-22T11:42:11;34.40;50.50
8910;DHT22;4490;49.072;8.804;2022-07-22T11:44:38;34.40;50.90
8910;DHT22;4490;49.072;8.804;2022-07-22T11:47:05;34.30;50.70
8910;DHT22;4490;49.072;8.804;2022-07-22T11:49:33;34.40;50.70
8910;DHT22;4490;49.072;8.804;2022-07-22T11:52:00;34.50;50.70
8910;DHT22;4490;49.072;8.804;2022-07-22T11:54:27;34.50;50.40
8910;DHT22;4490;49.072;8.804;2022-07-22T11:56:53;34.50;49.70
8910;DHT22;4490;49.072;8.804;2022-07-22T11:59:19;34.50;50.50
8910;DHT22;4490;49.072;8.804;2022-07-22T12:01:46;34.70;49.40
8910;DHT22;4490;49.072;8.804;2022-07-22T12:04:15;34.80;50.10
8910;DHT22;4490;49.072;8.804;2022-07-22T12:06:43;35.00;49.60
8910;DHT22;4490;49.072;8.804;2022-07-22T12:09:11;35.10;48.60
8910;DHT22;4490;49.072;8.804;2022-07-22T12:11:39;35.20;48.60
8910;DHT22;4490;49.072;8.804;2022-07-22T12:14:10;35.40;49.20
8910;DHT22;4490;49.072;8.804;2022-07-22T12:16:38;35.50;48.40
8910;DHT22;4490;49.072;8.804;2022-07-22T12:19:10;35.50;47.80
8910;DHT22;4490;49.072;8.804;2022-07-22T12:21:50;35.50;47.50
8910;DHT22;4490;49.072;8.804;2022-07-22T12:24:17;35.60;46.50
8910;DHT22;4490;49.072;8.804;2022-07-22T12:26:49;35.50;47.30
8910;DHT22;4490;49.072;8.804;2022-07-22T12:29:18;35.50;47.20
8910;DHT22;4490;49.072;8.804;2022-07-22T12:31:54;35.60;47.60
8910;DHT22;4490;49.072;8.804;2022-07-22T12:37:23;35.90;46.50
8910;DHT22;4490;49.072;8.804;2022-07-22T12:40:01;36.10;46.70
8910;DHT22;4490;49.072;8.804;2022-07-22T12:42:31;36.30;46.50
8910;DHT22;4490;49.072;8.804;2022-07-22T12:45:08;36.30;46.60
8910;DHT22;4490;49.072;8.804;2022-07-22T12:47:51;36.40;46.00
8910;DHT22;4490;49.072;8.804;2022-07-22T12:50:57;36.40;45.50
8910;DHT22;4490;49.072;8.804;2022-07-22T12:53:25;36.50;45.00
8910;DHT22;4490;49.072;8.804;2022-07-22T12:55:52;36.40;45.10
8910;DHT22;4490;49.072;8.804;2022-07-22T12:58:18;36.50;45.50
8910;DHT22;4490;49.072;8.804;2022-07-22T13:00:49;36.50;45.20
8910;DHT22;4490;49.072;8.804;2022-07-22T13:03:15;36.60;45.60
8910;DHT22;4490;49.072;8.804;2022-07-22T13:05:45;36.60;45.30
8910;DHT22;4490;49.072;8.804;2022-07-22T13:08:11;36.80;45.50
8910;DHT22;4490;49.072;8.804;2022-07-22T13:10:37;36.90;44.50
8910;DHT22;4490;49.072;8.804;2022-07-22T13:13:02;37.10;44.50
8910;DHT22;4490;49.072;8.804;2022-07-22T13:15:28;37.30;43.90
8910;DHT22;4490;49.072;8.804;2022-07-22T13:17:54;37.40;43.20
8910;DHT22;4490;49.072;8.804;2022-07-22T13:20:20;37.40;43.60
8910;DHT22;4490;49.072;8.804;2022-07-22T13:22:47;37.50;43.70
8910;DHT22;4490;49.072;8.804;2022-07-22T13:25:13;37.30;43.50
8910;DHT22;4490;49.072;8.804;2022-07-22T13:27:39;37.10;43.80
8910;DHT22;4490;49.072;8.804;2022-07-22T13:30:05;36.90;43.70
8910;DHT22;4490;49.072;8.804;2022-07-22T13:32:30;36.90;44.00
8910;DHT22;4490;49.072;8.804;2022-07-22T13:34:56;36.70;43.70
8910;DHT22;4490;49.072;8.804;2022-07-22T13:37:22;36.50;43.70
8910;DHT22;4490;49.072;8.804;2022-07-22T13:39:48;36.40;44.30
8910;DHT22;4490;49.072;8.804;2022-07-22T13:42:15;36.30;44.30
8910;DHT22;4490;49.072;8.804;2022-07-22T13:44:48;36.30;45.20
8910;DHT22;4490;49.072;8.804;2022-07-22T13:47:14;36.30;45.20
8910;DHT22;4490;49.072;8.804;2022-07-22T13:49:40;36.20;44.80
8910;DHT22;4490;49.072;8.804;2022-07-22T13:52:07;36.10;46.00
8910;DHT22;4490;49.072;8.804;2022-07-22T13:54:33;36.00;45.80
8910;DHT22;4490;49.072;8.804;2022-07-22T13:57:00;36.00;44.70
8910;DHT22;4490;49.072;8.804;2022-07-22T13:59:26;36.00;44.30
8910;DHT22;4490;49.072;8.804;2022-07-22T14:01:53;36.00;45.10
8910;DHT22;4490;49.072;8.804;2022-07-22T14:04:18;35.90;45.40
8910;DHT22;4490;49.072;8.804;2022-07-22T14:06:44;35.80;43.50
8910;DHT22;4490;49.072;8.804;2022-07-22T14:09:10;35.90;43.30
8910;DHT22;4490;49.072;8.804;2022-07-22T14:11:35;35.90;44.50
8910;DHT22;4490;49.072;8.804;2022-07-22T14:14:01;35.90;45.10
8910;DHT22;4490;49.072;8.804;2022-07-22T14:16:26;35.80;45.00
8910;DHT22;4490;49.072;8.804;2022-07-22T14:21:30;35.70;44.90
8910;DHT22;4490;49.072;8.804;2022-07-22T14:23:55;35.60;44.30
8910;DHT22;4490;49.072;8.804;2022-07-22T14:26:21;35.50;44.40
8910;DHT22;4490;49.072;8.804;2022-07-22T14:28:47;35.50;44.50
8910;DHT22;4490;49.072;8.804;2022-07-22T14:31:12;35.50;44.30
8910;DHT22;4490;49.072;8.804;2022-07-22T14:33:38;35.50;44.30
8910;DHT22;4490;49.072;8.804;2022-07-22T14:36:04;35.40;44.70
8910;DHT22;4490;49.072;8.804;2022-07-22T14:38:30;35.40;44.60
8910;DHT22;4490;49.072;8.804;2022-07-22T14:40:55;35.30;44.80
8910;DHT22;4490;49.072;8.804;2022-07-22T14:43:21;35.30;44.40
8910;DHT22;4490;49.072;8.804;2022-07-22T14:45:47;35.30;44.90
8910;DHT22;4490;49.072;8.804;2022-07-22T14:48:12;35.20;45.70
8910;DHT22;4490;49.072;8.804;2022-07-22T14:50:38;35.20;45.40
8910;DHT22;4490;49.072;8.804;2022-07-22T14:53:04;35.10;45.20
8910;DHT22;4490;49.072;8.804;2022-07-22T14:55:29;35.00;45.40
8910;DHT22;4490;49.072;8.804;2022-07-22T14:57:55;34.90;45.70
8910;DHT22;4490;49.072;8.804;2022-07-22T15:00:21;34.90;45.70
8910;DHT22;4490;49.072;8.804;2022-07-22T15:02:46;35.00;45.80
8910;DHT22;4490;49.072;8.804;2022-07-22T15:05:12;35.00;45.70
8910;DHT22;4490;49.072;8.804;2022-07-22T15:07:38;35.00;45.80
8910;DHT22;4490;49.072;8.804;2022-07-22T15:10:04;34.90;45.80
8910;DHT22;4490;49.072;8.804;2022-07-22T15:12:30;34.80;45.80
8910;DHT22;4490;49.072;8.804;2022-07-22T15:14:55;34.80;45.50
8910;DHT22;4490;49.072;8.804;2022-07-22T15:17:21;34.70;45.60
8910;DHT22;4490;49.072;8.804;2022-07-22T15:19:47;34.60;45.30
8910;DHT22;4490;49.072;8.804;2022-07-22T15:22:12;34.60;44.90
8910;DHT22;4490;49.072;8.804;2022-07-22T15:24:38;34.60;45.20
8910;DHT22;4490;49.072;8.804;2022-07-22T15:27:03;34.50;44.80
8910;DHT22;4490;49.072;8.804;2022-07-22T15:29:29;34.50;45.50
8910;DHT22;4490;49.072;8.804;2022-07-22T15:31:55;34.40;45.20
8910;DHT22;4490;49.072;8.804;2022-07-22T15:34:20;34.30;45.50
8910;DHT22;4490;49.072;8.804;2022-07-22T15:36:46;34.10;46.00
8910;DHT22;4490;49.072;8.804;2022-07-22T15:39:12;34.00;45.80
8910;DHT22;4490;49.072;8.804;2022-07-22T15:41:39;34.00;45.40
8910;DHT22;4490;49.072;8.804;2022-07-22T15:44:06;33.90;45.60
8910;DHT22;4490;49.072;8.804;2022-07-22T15:46:32;33.80;45.70
8910;DHT22;4490;49.072;8.804;2022-07-22T15:48:58;33.70;46.10
8910;DHT22;4490;49.072;8.804;2022-07-22T15:51:24;33.70;46.40
8910;DHT22;4490;49.072;8.804;2022-07-22T15:53:52;33.60;46.00
8910;DHT22;4490;49.072;8.804;2022-07-22T15:56:18;33.50;45.90
8910;DHT22;4490;49.072;8.804;2022-07-22T15:58:48;33.40;46.10
8910;DHT22;4490;49.072;8.804;2022-07-22T16:01:32;33.40;46.70
8910;DHT22;4490;49.072;8.804;2022-07-22T16:03:58;33.30;46.90
8910;DHT22;4490;49.072;8.804;2022-07-22T16:06:24;33.30;46.60
8910;DHT22;4490;49.072;8.804;2022-07-22T16:08:49;33.40;47.00
8910;DHT22;4490;49.072;8.804;2022-07-22T16:11:15;33.40;46.50
8910;DHT22;4490;49.072;8.804;2022-07-22T16:13:41;33.30;46.30
8910;DHT22;4490;49.072;8.804;2022-07-22T16:16:07;33.30;46.80
8910;DHT22;4490;49.072;8.804;2022-07-22T16:18:32;33.30;47.00
8910;DHT22;4490;49.072;8.804;2022-07-22T16:20:58;33.20;47.60
8910;DHT22;4490;49.072;8.804;2022-07-22T16:23:24;33.30;48.20
8910;DHT22;4490;49.072;8.804;2022-07-22T16:25:50;33.20;48.50